地図

経路データ

SID SEASON NUMBER BASIN SUBBASIN NAME ISO_TIME NATURE LAT LON WMO_WIND WMO_PRES WMO_AGENCY TRACK_TYPE DIST2LAND LANDFALL IFLAG USA_AGENCY USA_ATCF_ID USA_LAT USA_LON USA_RECORD USA_STATUS USA_WIND USA_PRES USA_SSHS USA_R34_NE USA_R34_SE USA_R34_SW USA_R34_NW USA_R50_NE USA_R50_SE USA_R50_SW USA_R50_NW USA_R64_NE USA_R64_SE USA_R64_SW USA_R64_NW USA_POCI USA_ROCI USA_RMW USA_EYE TOKYO_LAT TOKYO_LON TOKYO_GRADE TOKYO_WIND TOKYO_PRES TOKYO_R50_DIR TOKYO_R50_LONG TOKYO_R50_SHORT TOKYO_R30_DIR TOKYO_R30_LONG TOKYO_R30_SHORT TOKYO_LAND CMA_LAT CMA_LON CMA_CAT CMA_WIND CMA_PRES HKO_LAT HKO_LON HKO_CAT HKO_WIND HKO_PRES NEWDELHI_LAT NEWDELHI_LON NEWDELHI_GRADE NEWDELHI_WIND NEWDELHI_PRES NEWDELHI_CI NEWDELHI_DP NEWDELHI_POCI REUNION_LAT REUNION_LON REUNION_TYPE REUNION_WIND REUNION_PRES REUNION_TNUM REUNION_CI REUNION_RMW REUNION_R34_NE REUNION_R34_SE REUNION_R34_SW REUNION_R34_NW REUNION_R50_NE REUNION_R50_SE REUNION_R50_SW REUNION_R50_NW REUNION_R64_NE REUNION_R64_SE REUNION_R64_SW REUNION_R64_NW BOM_LAT BOM_LON BOM_TYPE BOM_WIND BOM_PRES BOM_TNUM BOM_CI BOM_RMW BOM_R34_NE BOM_R34_SE BOM_R34_SW BOM_R34_NW BOM_R50_NE BOM_R50_SE BOM_R50_SW BOM_R50_NW BOM_R64_NE BOM_R64_SE BOM_R64_SW BOM_R64_NW BOM_ROCI BOM_POCI BOM_EYE BOM_POS_METHOD BOM_PRES_METHOD NADI_LAT NADI_LON NADI_CAT NADI_WIND NADI_PRES WELLINGTON_LAT WELLINGTON_LON WELLINGTON_WIND WELLINGTON_PRES DS824_LAT DS824_LON DS824_STAGE DS824_WIND DS824_PRES TD9636_LAT TD9636_LON TD9636_STAGE TD9636_WIND TD9636_PRES TD9635_LAT TD9635_LON TD9635_WIND TD9635_PRES TD9635_ROCI NEUMANN_LAT NEUMANN_LON NEUMANN_CLASS NEUMANN_WIND NEUMANN_PRES MLC_LAT MLC_LON MLC_CLASS MLC_WIND MLC_PRES USA_GUST BOM_GUST BOM_GUST_PER REUNION_GUST REUNION_GUST_PER USA_SEAHGT USA_SEARAD_NE USA_SEARAD_SE USA_SEARAD_SW USA_SEARAD_NW STORM_SPEED STORM_DIR
1885111S07448 1885 17 SI MM NOT_NAMED 1885-04-20 18:00:00 NR -7.30000 87.7000 spur-merge 1389 1389 __________O___ -1 -7.30000 87.7000 7 6 233
1885111S07448 1885 17 SI MM NOT_NAMED 1885-04-20 21:00:00 NR -7.47509 87.4705 spur-merge 1419 1419 __________P___ -1 -7.47509 87.4705 7 6 232
1885111S07448 1885 17 SI MM NOT_NAMED 1885-04-21 00:00:00 NR -7.65010 87.2426 spur-merge 1459 1459 __________P___ -1 -7.65010 87.2426 7 6 232
1885111S07448 1885 17 SI MM NOT_NAMED 1885-04-21 03:00:00 NR -7.82506 87.0185 spur-merge 1483 1483 __________P___ -1 -7.82506 87.0185 7 6 231
1885111S07448 1885 17 SI MM NOT_NAMED 1885-04-21 06:00:00 NR -8.00000 86.8000 spur-merge 1514 1514 __________O___ -1 -8.00000 86.8000 7 6 231
1885111S07448 1885 17 SI MM NOT_NAMED 1885-04-21 09:00:00 NR -8.17496 86.5887 spur-merge 1544 1544 __________P___ -1 -8.17496 86.5887 7 5 230
1885111S07448 1885 17 SI MM NOT_NAMED 1885-04-21 12:00:00 NR -8.34996 86.3849 spur-merge 1569 1569 __________P___ -1 -8.34996 86.3849 7 5 228
1885111S07448 1885 17 SI MM NOT_NAMED 1885-04-21 15:00:00 NR -8.52497 86.1887 spur-merge 1599 1599 __________P___ -1 -8.52497 86.1887 7 5 227
1885111S07448 1885 17 SI MM NOT_NAMED 1885-04-21 18:00:00 NR -8.70000 86.0000 spur-merge 1629 1629 __________O___ -1 -8.70000 86.0000 7 5 226
1885111S07448 1885 17 SI MM NOT_NAMED 1885-04-21 21:00:00 NR -8.88310 85.8097 spur-merge 1659 1659 __________P___ -1 -8.88310 85.8097 7 5 225
1885111S07448 1885 17 SI MM NOT_NAMED 1885-04-22 00:00:00 NR -9.06498 85.6275 spur-merge 1690 1690 __________P___ -1 -9.06498 85.6275 7 5 224
1885111S07448 1885 17 SI MM NOT_NAMED 1885-04-22 03:00:00 NR -9.23936 85.4566 spur-merge 1705 1705 __________P___ -1 -9.23936 85.4566 7 5 224
1885111S07448 1885 17 SI MM NOT_NAMED 1885-04-22 06:00:00 NR -9.40000 85.3000 spur-merge 1735 1735 __________O___ -1 -9.40000 85.3000 7 4 224
1885111S07448 1885 17 SI MM NOT_NAMED 1885-04-22 09:00:00 NR -9.54340 85.1565 spur-merge 1750 1750 __________P___ -1 -9.54340 85.1565 7 4 224
1885111S07448 1885 17 SI MM NOT_NAMED 1885-04-22 12:00:00 NR -9.67246 85.0274 spur-merge 1780 1780 __________P___ -1 -9.67246 85.0274 7 3 225
1885111S07448 1885 17 SI MM NOT_NAMED 1885-04-22 15:00:00 NR -9.79029 84.9096 spur-merge 1795 1795 __________P___ -1 -9.79029 84.9096 7 3 224
1885111S07448 1885 17 SI MM NOT_NAMED 1885-04-22 18:00:00 NR -9.90000 84.8000 spur-merge 1810 1810 __________O___ -1 -9.90000 84.8000 7 3 226
1885111S07448 1885 17 SI MM NOT_NAMED 1885-04-22 21:00:00 NR -9.99497 84.6968 spur-merge 1825 1825 __________P___ -1 -9.99497 84.6968 7 3 227
1885111S07448 1885 17 SI MM NOT_NAMED 1885-04-23 00:00:00 NR -10.0850 84.5999 spur-merge 1840 1840 __________P___ -1 -10.0850 84.5999 7 3 225
1885111S07448 1885 17 SI MM NOT_NAMED 1885-04-23 03:00:00 NR -10.1825 84.5030 spur-merge 1855 1852 __________P___ -1 -10.1825 84.5030 7 3 223
1885111S07448 1885 17 SI MM NOT_NAMED 1885-04-23 06:00:00 NR -10.3000 84.4000 spur-merge 1863 1863 __________O___ -1 -10.3000 84.4000 7 4 218
1885111S07448 1885 17 SI MM NOT_NAMED 1885-04-23 09:00:00 NR -10.4656 84.2782 spur-merge 1882 1880 __________P___ -1 -10.4656 84.2782 7 4 215
1885111S07448 1885 17 SI MM NOT_NAMED 1885-04-23 12:00:00 NR -10.6500 84.1501 spur-merge 1902 1900 __________P___ -1 -10.6500 84.1501 7 4 215
1885111S07448 1885 17 SI MM NOT_NAMED 1885-04-23 15:00:00 NR -10.8344 84.0219 spur-merge 1908 1908 __________P___ -1 -10.8344 84.0219 7 4 215
1885111S07448 1885 17 SI MM NOT_NAMED 1885-04-23 18:00:00 NR -11.0000 83.9000 spur-merge 1928 1928 __________O___ -1 -11.0000 83.9000 7 4 217
1885111S07448 1885 17 SI MM NOT_NAMED 1885-04-23 21:00:00 NR -11.1328 83.7890 spur-merge 1937 1937 __________P___ -1 -11.1328 83.7890 7 3 221
1885111S07448 1885 17 SI MM NOT_NAMED 1885-04-24 00:00:00 NR -11.2375 83.6875 spur-merge 1946 1946 __________P___ -1 -11.2375 83.6875 7 3 225
1885111S07448 1885 17 SI MM NOT_NAMED 1885-04-24 03:00:00 NR -11.3234 83.5922 spur-merge 1955 1955 __________P___ -1 -11.3234 83.5922 7 2 229
1885111S07448 1885 17 SI MM NOT_NAMED 1885-04-24 06:00:00 NR -11.4000 83.5000 spur-merge 1964 __________O___ -1 -11.4000 83.5000 7 2 230

IBTrACS Databaseについて

本データベースは、米国NOAAが公開する1842年以降の世界の熱帯低気圧のベストトラックデータアーカイブInternational Best Track Archive for Climate Stewardship (IBTrACS)を、ウェブで閲覧しやすい形式に変換したものです。

最終更新日:2021-11-26